Terminal Aerodrome Forecast
Issued by NWS

Home | Current Version | Previous Version | Graphics & Text | Print | Product List | Glossary On
Versions: 1 2 3 4 5 6 7 8 9 10 11 12 13 14 15 16 17 18
283
FTUS43 KIWX 171120
TAFSBN
TAF
KSBN 171120Z 1712/1812 16008KT P6SM OVC015
     FM171800 16015G22KT P6SM BKN250
     FM180000 17016G23KT P6SM BKN050 WS020/20045KT
     FM180300 19017G24KT 5SM -SHRA OVC015 WS020/21060KT
      TEMPO 1803/1807 3SM -TSRA BKN008CB
     FM180800 20012KT 2SM -RA BR OVC004=

USA.gov is the U.S. government's official web portal to all federal, state and local government web resources and services.